Time;durP1;ratioP1;P1;durP2;ratioP2;P2;SDS_P1;SDS_P2;PMS_P1;PMS_P2;Temp;Humidity;BMP_temperature;BMP_pressure;BME280_temperature;BME280_humidity;BME280_pressure;Samples;Min_cycle;Max_cycle;Signal;HPM_P1;HPM_P2
2023/05/28 00:01:45;;;;;;;;;;;22.40;47.10;;;;;;5091751;28;20398;-55
2023/05/28 00:04:11;;;;;;;;;;;22.40;47.00;;;;;;5088748;28;20006;-55
2023/05/28 00:06:36;;;;;;;;;;;22.40;47.00;;;;;;5086212;28;20053;-55
2023/05/28 00:09:01;;;;;;;;;;;22.40;47.10;;;;;;5072169;28;19943;-54
2023/05/28 00:11:27;;;;;;;;;;;22.40;47.00;;;;;;5075197;28;19944;-55
2023/05/28 00:13:52;;;;;;;;;;;22.40;47.10;;;;;;5093386;28;19912;-55
2023/05/28 00:16:18;;;;;;;;;;;22.40;47.20;;;;;;5084299;28;19912;-55
2023/05/28 00:18:43;;;;;;;;;;;22.40;47.00;;;;;;5085346;28;19913;-55
2023/05/28 00:21:09;;;;;;;;;;;22.40;47.00;;;;;;5092642;28;20391;-55
2023/05/28 00:23:34;;;;;;;;;;;22.40;47.20;;;;;;5091520;28;20399;-55
2023/05/28 00:25:59;;;;;;;;;;;22.40;47.40;;;;;;5094764;28;19908;-55
2023/05/28 00:28:25;;;;;;;;;;;22.40;47.60;;;;;;5093571;28;19912;-56
2023/05/28 00:30:50;;;;;;;;;;;22.30;47.20;;;;;;5094323;28;19919;-54
2023/05/28 00:33:16;;;;;;;;;;;22.30;47.10;;;;;;5084514;28;19926;-55
2023/05/28 00:35:41;;;;;;;;;;;22.30;47.10;;;;;;5081204;28;19912;-55
2023/05/28 00:38:07;;;;;;;;;;;22.30;47.00;;;;;;5092615;28;19999;-56
2023/05/28 00:40:32;;;;;;;;;;;22.30;47.30;;;;;;5067959;28;19923;-55
2023/05/28 00:42:58;;;;;;;;;;;22.30;47.50;;;;;;5092865;28;20388;-55
2023/05/28 00:45:23;;;;;;;;;;;22.30;47.40;;;;;;5094508;28;20287;-54
2023/05/28 00:47:48;;;;;;;;;;;22.30;47.10;;;;;;5089384;28;19921;-55
2023/05/28 00:50:16;;;;;;;;;;;22.30;47.50;;;;;;5088809;28;20421;-55
2023/05/28 00:52:42;;;;;;;;;;;22.30;47.40;;;;;;5072769;28;20023;-55
2023/05/28 00:55:12;;;;;;;;;;;22.30;47.40;;;;;;5093182;28;20033;-55
2023/05/28 00:57:38;;;;;;;;;;;22.30;47.80;;;;;;5092805;28;19952;-56
2023/05/28 01:00:04;;;;;;;;;;;22.30;47.40;;;;;;5089433;28;19959;-55
2023/05/28 01:02:29;;;;;;;;;;;22.30;47.40;;;;;;5092127;28;19916;-55
2023/05/28 01:04:55;;;;;;;;;;;22.30;47.30;;;;;;5093717;28;19908;-55
2023/05/28 01:07:20;;;;;;;;;;;22.30;47.50;;;;;;5082146;28;20388;-55
2023/05/28 01:09:46;;;;;;;;;;;22.30;47.60;;;;;;5093467;28;20269;-55
2023/05/28 01:12:11;;;;;;;;;;;22.30;47.70;;;;;;5093697;28;19919;-55
2023/05/28 01:14:37;;;;;;;;;;;22.20;47.60;;;;;;5071640;28;19923;-55
2023/05/28 01:17:03;;;;;;;;;;;22.20;47.30;;;;;;5082407;28;20001;-55
2023/05/28 01:19:29;;;;;;;;;;;22.20;47.30;;;;;;5093919;28;19912;-55
2023/05/28 01:22:04;;;;;;;;;;;22.20;47.60;;;;;;5093186;28;20432;-55
2023/05/28 01:24:31;;;;;;;;;;;22.20;47.60;;;;;;5088059;28;19916;-55
2023/05/28 01:26:57;;;;;;;;;;;22.20;47.40;;;;;;5075760;28;19916;-55
2023/05/28 01:29:22;;;;;;;;;;;22.20;47.70;;;;;;5071152;28;19942;-55
2023/05/28 01:31:48;;;;;;;;;;;22.30;47.50;;;;;;5087934;28;19912;-54
2023/05/28 01:34:13;;;;;;;;;;;22.20;47.30;;;;;;5089350;28;19970;-55
2023/05/28 01:36:43;;;;;;;;;;;22.20;47.30;;;;;;5068311;28;19916;-55
2023/05/28 01:39:12;;;;;;;;;;;22.20;47.40;;;;;;5093106;28;19912;-55
2023/05/28 01:41:37;;;;;;;;;;;22.20;47.40;;;;;;5067207;28;20014;-54
2023/05/28 01:44:03;;;;;;;;;;;22.20;47.40;;;;;;5066696;28;19959;-55
2023/05/28 01:46:28;;;;;;;;;;;22.20;47.20;;;;;;5085341;28;19917;-55
2023/05/28 01:48:54;;;;;;;;;;;22.20;47.20;;;;;;5072733;28;19922;-55
2023/05/28 01:51:22;;;;;;;;;;;22.20;47.30;;;;;;5085504;28;19913;-55
2023/05/28 01:53:48;;;;;;;;;;;22.20;47.20;;;;;;5090731;28;19912;-55
2023/05/28 01:56:13;;;;;;;;;;;22.20;47.20;;;;;;5101161;28;20333;-55
2023/05/28 01:58:39;;;;;;;;;;;22.20;47.20;;;;;;5089590;28;19999;-55
2023/05/28 02:01:23;;;;;;;;;;;22.20;47.20;;;;;;5072682;28;19912;-55
2023/05/28 02:03:48;;;;;;;;;;;22.20;47.20;;;;;;5090203;28;19912;-55
2023/05/28 02:06:14;;;;;;;;;;;22.20;47.30;;;;;;5085089;28;20027;-55
2023/05/28 02:08:39;;;;;;;;;;;22.20;47.30;;;;;;5092327;28;19912;-54
2023/05/28 02:11:05;;;;;;;;;;;22.20;47.30;;;;;;5089525;28;19920;-55
2023/05/28 02:13:31;;;;;;;;;;;22.10;47.20;;;;;;5091731;28;20085;-55
2023/05/28 02:15:57;;;;;;;;;;;22.10;47.20;;;;;;5087026;28;19919;-56
2023/05/28 02:18:22;;;;;;;;;;;22.10;47.20;;;;;;5092713;28;20376;-55
2023/05/28 02:20:47;;;;;;;;;;;22.10;47.40;;;;;;5062723;28;20390;-54
2023/05/28 02:23:13;;;;;;;;;;;22.10;47.20;;;;;;5088925;28;19912;-54
2023/05/28 02:25:38;;;;;;;;;;;22.10;47.20;;;;;;5080946;28;20399;-55
2023/05/28 02:28:04;;;;;;;;;;;22.10;47.20;;;;;;5064458;28;20069;-54
2023/05/28 02:30:30;;;;;;;;;;;22.10;47.20;;;;;;5090714;28;20018;-55
2023/05/28 02:32:55;;;;;;;;;;;22.10;47.30;;;;;;5091484;28;20110;-55
2023/05/28 02:35:22;;;;;;;;;;;22.10;47.20;;;;;;5088841;28;19924;-54
2023/05/28 02:37:48;;;;;;;;;;;22.10;47.40;;;;;;5084741;28;20394;-55
2023/05/28 02:40:13;;;;;;;;;;;22.10;47.40;;;;;;5090646;28;19960;-55
2023/05/28 02:42:39;;;;;;;;;;;22.00;47.30;;;;;;5089123;28;19920;-55
2023/05/28 02:45:05;;;;;;;;;;;22.10;47.30;;;;;;5083937;28;19912;-54
2023/05/28 02:47:30;;;;;;;;;;;22.00;47.30;;;;;;5091702;28;19931;-55
2023/05/28 02:49:56;;;;;;;;;;;22.00;47.10;;;;;;5086724;28;20295;-55
2023/05/28 02:52:21;;;;;;;;;;;22.00;47.20;;;;;;5091158;28;20303;-55
2023/05/28 02:54:46;;;;;;;;;;;22.00;47.50;;;;;;5082181;28;20010;-55
2023/05/28 02:57:12;;;;;;;;;;;22.00;47.20;;;;;;5108061;28;19907;-55
2023/05/28 02:59:38;;;;;;;;;;;22.00;47.40;;;;;;5091050;28;19912;-55
2023/05/28 03:02:03;;;;;;;;;;;22.00;47.40;;;;;;5085922;28;19921;-55
2023/05/28 03:04:29;;;;;;;;;;;22.00;47.30;;;;;;5084650;28;19924;-55
2023/05/28 03:06:54;;;;;;;;;;;22.00;47.20;;;;;;5089313;28;19969;-55
2023/05/28 03:09:20;;;;;;;;;;;21.90;47.30;;;;;;5085073;28;19977;-55
2023/05/28 03:11:45;;;;;;;;;;;21.90;47.30;;;;;;5091913;28;19973;-55
2023/05/28 03:14:11;;;;;;;;;;;21.90;47.40;;;;;;5090899;28;19985;-55
2023/05/28 03:16:36;;;;;;;;;;;21.90;47.30;;;;;;5089045;28;20003;-55
2023/05/28 03:19:02;;;;;;;;;;;21.90;47.30;;;;;;5092145;28;19915;-54
2023/05/28 03:21:27;;;;;;;;;;;21.90;47.30;;;;;;5088003;28;19912;-55
2023/05/28 03:23:53;;;;;;;;;;;21.90;47.50;;;;;;5071924;28;19912;-55
2023/05/28 03:26:18;;;;;;;;;;;21.90;47.60;;;;;;5078752;28;20292;-55
2023/05/28 03:28:44;;;;;;;;;;;21.90;47.50;;;;;;5090085;28;19912;-55
2023/05/28 03:31:11;;;;;;;;;;;21.90;47.60;;;;;;5091341;28;19958;-55
2023/05/28 03:33:36;;;;;;;;;;;21.90;47.40;;;;;;5091621;28;20398;-55
2023/05/28 03:36:02;;;;;;;;;;;21.90;47.40;;;;;;5064780;28;19963;-55
2023/05/28 03:38:27;;;;;;;;;;;21.90;47.40;;;;;;5084852;28;20399;-55
2023/05/28 03:40:52;;;;;;;;;;;21.80;47.30;;;;;;5069346;28;19912;-55
2023/05/28 03:43:18;;;;;;;;;;;21.80;47.20;;;;;;5077596;28;19986;-55
2023/05/28 03:45:43;;;;;;;;;;;21.80;47.30;;;;;;5090109;28;20303;-55
2023/05/28 03:48:09;;;;;;;;;;;21.80;47.30;;;;;;5066248;28;20380;-55
2023/05/28 03:50:35;;;;;;;;;;;21.80;47.20;;;;;;5071191;28;19916;-55
2023/05/28 03:53:00;;;;;;;;;;;21.80;47.30;;;;;;5096259;28;19916;-55
2023/05/28 03:55:25;;;;;;;;;;;21.80;47.30;;;;;;5078570;28;20339;-55
2023/05/28 03:57:51;;;;;;;;;;;21.80;47.30;;;;;;5086353;28;19916;-54
2023/05/28 04:00:16;;;;;;;;;;;21.80;47.30;;;;;;5094019;28;20357;-55
2023/05/28 04:02:42;;;;;;;;;;;21.80;47.30;;;;;;5092249;28;20368;-55
2023/05/28 04:05:07;;;;;;;;;;;21.80;47.30;;;;;;5086428;28;20003;-55
2023/05/28 04:07:33;;;;;;;;;;;21.80;47.20;;;;;;5092711;28;19912;-55
2023/05/28 04:09:58;;;;;;;;;;;21.80;47.30;;;;;;5094460;28;19912;-55
2023/05/28 04:12:24;;;;;;;;;;;21.80;47.30;;;;;;5076737;28;19912;-55
2023/05/28 04:14:49;;;;;;;;;;;21.80;47.30;;;;;;5088146;28;19920;-55
2023/05/28 04:17:15;;;;;;;;;;;21.80;47.30;;;;;;5092947;28;19938;-54
2023/05/28 04:19:40;;;;;;;;;;;21.80;47.30;;;;;;5087545;28;20372;-55
2023/05/28 04:22:06;;;;;;;;;;;21.80;47.30;;;;;;5095538;28;20368;-55
2023/05/28 04:24:32;;;;;;;;;;;21.80;47.30;;;;;;5081943;28;20015;-55
2023/05/28 04:26:59;;;;;;;;;;;21.80;47.30;;;;;;5093616;28;19912;-55
2023/05/28 04:29:25;;;;;;;;;;;21.80;47.10;;;;;;5093014;28;20003;-55
2023/05/28 04:31:50;;;;;;;;;;;21.80;47.20;;;;;;5075169;28;20435;-55
2023/05/28 04:34:17;;;;;;;;;;;21.80;47.30;;;;;;5093721;28;19965;-55
2023/05/28 04:36:42;;;;;;;;;;;21.80;47.20;;;;;;5085285;28;19923;-55
2023/05/28 04:39:08;;;;;;;;;;;21.80;47.30;;;;;;5093227;28;19908;-55
2023/05/28 04:41:34;;;;;;;;;;;21.80;47.20;;;;;;5092489;28;19913;-55
2023/05/28 04:43:59;;;;;;;;;;;21.80;47.30;;;;;;5092990;28;19947;-55
2023/05/28 04:46:29;;;;;;;;;;;21.80;47.30;;;;;;5092116;28;19924;-55
2023/05/28 04:48:54;;;;;;;;;;;21.90;47.40;;;;;;5071982;28;20010;-55
2023/05/28 04:51:20;;;;;;;;;;;21.70;47.30;;;;;;5076007;28;20412;-55
2023/05/28 04:53:46;;;;;;;;;;;21.80;47.30;;;;;;5092551;28;19920;-54
2023/05/28 04:56:11;;;;;;;;;;;21.80;47.30;;;;;;5086832;28;19968;-55
2023/05/28 04:58:37;;;;;;;;;;;21.80;47.30;;;;;;5081164;28;19985;-55
2023/05/28 05:01:02;;;;;;;;;;;21.80;47.30;;;;;;5094357;28;19915;-54
2023/05/28 05:03:30;;;;;;;;;;;21.80;47.30;;;;;;5087953;28;19916;-54
2023/05/28 05:05:55;;;;;;;;;;;21.80;47.30;;;;;;5086683;28;19923;-55
2023/05/28 05:08:21;;;;;;;;;;;21.80;47.30;;;;;;5059759;28;19920;-55
2023/05/28 05:10:47;;;;;;;;;;;21.80;47.30;;;;;;5091835;28;19909;-55
2023/05/28 05:13:12;;;;;;;;;;;21.80;47.40;;;;;;5087710;28;19948;-55
2023/05/28 05:15:38;;;;;;;;;;;21.80;47.40;;;;;;5093524;28;19966;-55
2023/05/28 05:18:03;;;;;;;;;;;21.80;47.40;;;;;;5085576;28;19961;-56
2023/05/28 05:20:29;;;;;;;;;;;21.80;47.40;;;;;;5093514;28;19916;-55
2023/05/28 05:22:54;;;;;;;;;;;21.80;47.40;;;;;;5074423;28;20406;-55
2023/05/28 05:25:20;;;;;;;;;;;21.80;47.40;;;;;;5092912;28;19920;-55
2023/05/28 05:27:48;;;;;;;;;;;21.80;47.40;;;;;;5069682;28;19943;-55
2023/05/28 05:30:14;;;;;;;;;;;21.80;47.50;;;;;;5066236;28;19916;-55
2023/05/28 05:32:40;;;;;;;;;;;21.80;47.30;;;;;;5069726;28;20015;-55
2023/05/28 05:35:06;;;;;;;;;;;21.80;47.40;;;;;;5091170;28;20008;-54
2023/05/28 05:37:31;;;;;;;;;;;21.80;47.50;;;;;;5089836;28;20368;-55
2023/05/28 05:39:57;;;;;;;;;;;21.80;47.40;;;;;;5093440;28;19915;-55
2023/05/28 05:42:22;;;;;;;;;;;21.80;47.50;;;;;;5084456;28;19987;-55
2023/05/28 05:44:48;;;;;;;;;;;21.80;48.20;;;;;;5093229;28;19909;-55
2023/05/28 05:47:13;;;;;;;;;;;21.80;47.60;;;;;;5091623;28;19926;-55
2023/05/28 05:49:39;;;;;;;;;;;21.80;47.60;;;;;;5093183;28;20041;-54
2023/05/28 05:52:04;;;;;;;;;;;21.80;47.70;;;;;;5091195;28;19927;-55
2023/05/28 05:54:30;;;;;;;;;;;21.80;47.70;;;;;;5088438;28;20376;-55
2023/05/28 05:56:55;;;;;;;;;;;21.80;47.60;;;;;;5074626;28;19947;-55
2023/05/28 05:59:21;;;;;;;;;;;21.80;47.60;;;;;;5092236;28;19935;-55
2023/05/28 06:01:46;;;;;;;;;;;21.80;47.70;;;;;;5085249;28;19923;-55
2023/05/28 06:04:11;;;;;;;;;;;21.80;47.70;;;;;;5089193;28;19923;-55
2023/05/28 06:06:38;;;;;;;;;;;21.80;47.70;;;;;;5076686;28;19948;-55
2023/05/28 06:09:04;;;;;;;;;;;21.80;47.70;;;;;;5088414;28;19966;-55
2023/05/28 06:11:30;;;;;;;;;;;21.80;47.70;;;;;;5059721;28;20649;-55
2023/05/28 06:13:55;;;;;;;;;;;21.80;47.80;;;;;;5092095;28;19922;-55
2023/05/28 06:16:21;;;;;;;;;;;21.80;47.80;;;;;;5090812;28;19920;-55
2023/05/28 06:18:47;;;;;;;;;;;21.80;47.80;;;;;;5085486;28;20007;-55
2023/05/28 06:21:12;;;;;;;;;;;21.80;47.90;;;;;;5074126;28;19912;-55
2023/05/28 06:23:38;;;;;;;;;;;21.80;47.80;;;;;;5089981;28;20279;-55
2023/05/28 06:26:04;;;;;;;;;;;21.80;47.90;;;;;;5092589;28;20445;-55
2023/05/28 06:28:30;;;;;;;;;;;21.80;48.00;;;;;;5089958;28;19920;-55
2023/05/28 06:30:56;;;;;;;;;;;21.80;47.90;;;;;;5089115;28;19919;-55
2023/05/28 06:33:21;;;;;;;;;;;21.80;47.90;;;;;;5090857;28;19915;-55
2023/05/28 06:35:47;;;;;;;;;;;21.80;48.00;;;;;;5072621;28;20384;-55
2023/05/28 06:38:12;;;;;;;;;;;21.80;48.10;;;;;;5074536;28;19908;-55
2023/05/28 06:40:38;;;;;;;;;;;21.80;47.90;;;;;;5073157;28;19923;-55
2023/05/28 06:43:03;;;;;;;;;;;21.80;48.20;;;;;;5089756;28;19974;-55
2023/05/28 06:45:29;;;;;;;;;;;21.80;48.10;;;;;;5080689;28;19965;-55
2023/05/28 06:47:54;;;;;;;;;;;21.80;48.20;;;;;;5082931;28;19924;-54
2023/05/28 06:50:20;;;;;;;;;;;21.80;48.20;;;;;;5085887;28;19923;-55
2023/05/28 06:52:46;;;;;;;;;;;21.80;48.00;;;;;;5084935;28;19912;-55
2023/05/28 06:55:11;;;;;;;;;;;21.80;48.10;;;;;;5088830;28;19912;-54
2023/05/28 06:57:37;;;;;;;;;;;21.90;48.20;;;;;;5087128;28;19912;-54
2023/05/28 07:00:10;;;;;;;;;;;21.80;48.20;;;;;;5060906;28;20291;-55
2023/05/28 07:02:36;;;;;;;;;;;21.90;48.10;;;;;;5090643;28;19935;-55
2023/05/28 07:05:04;;;;;;;;;;;21.90;48.30;;;;;;5086393;28;20372;-55
2023/05/28 07:07:30;;;;;;;;;;;21.90;48.20;;;;;;5073740;28;19916;-55
2023/05/28 07:09:55;;;;;;;;;;;21.90;48.20;;;;;;5087942;28;19919;-55
2023/05/28 07:12:21;;;;;;;;;;;21.90;48.30;;;;;;5074582;28;19943;-54
2023/05/28 07:14:46;;;;;;;;;;;21.90;48.30;;;;;;5085034;28;19919;-55
2023/05/28 07:17:12;;;;;;;;;;;21.90;48.30;;;;;;5089620;28;19923;-54
2023/05/28 07:19:37;;;;;;;;;;;21.90;48.30;;;;;;5084393;28;19927;-55
2023/05/28 07:22:03;;;;;;;;;;;21.90;48.40;;;;;;5085821;28;19922;-55
2023/05/28 07:24:28;;;;;;;;;;;21.90;48.30;;;;;;5061425;28;20004;-55
2023/05/28 07:26:54;;;;;;;;;;;21.90;48.30;;;;;;5066878;28;19913;-55
2023/05/28 07:29:19;;;;;;;;;;;21.90;48.30;;;;;;5084874;28;19955;-55
2023/05/28 07:31:45;;;;;;;;;;;21.90;48.30;;;;;;5091089;28;20000;-55
2023/05/28 07:34:10;;;;;;;;;;;21.90;48.30;;;;;;5068726;28;19919;-55
2023/05/28 07:36:37;;;;;;;;;;;21.90;48.30;;;;;;5065918;28;20439;-55
2023/05/28 07:39:03;;;;;;;;;;;21.90;48.30;;;;;;5085757;28;19916;-55
2023/05/28 07:41:29;;;;;;;;;;;21.90;48.40;;;;;;5085808;28;19912;-55
2023/05/28 07:43:54;;;;;;;;;;;21.90;48.40;;;;;;5071802;28;19918;-55
2023/05/28 07:46:21;;;;;;;;;;;21.90;48.40;;;;;;5090962;28;19923;-55
2023/05/28 07:48:49;;;;;;;;;;;21.90;48.50;;;;;;5085321;28;21286;-55
2023/05/28 07:51:15;;;;;;;;;;;21.90;48.50;;;;;;5063672;28;19955;-55
2023/05/28 07:53:41;;;;;;;;;;;21.90;48.60;;;;;;5091281;28;20350;-55
2023/05/28 07:56:06;;;;;;;;;;;22.00;48.70;;;;;;5100113;28;19954;-55
2023/05/28 07:58:32;;;;;;;;;;;21.90;48.70;;;;;;5090505;28;19920;-55
2023/05/28 08:00:57;;;;;;;;;;;22.00;48.80;;;;;;5082534;28;19991;-55
2023/05/28 08:03:27;;;;;;;;;;;22.00;48.90;;;;;;5083969;28;19916;-55
2023/05/28 08:05:52;;;;;;;;;;;22.00;49.00;;;;;;5090848;28;19923;-55
2023/05/28 08:08:18;;;;;;;;;;;22.00;49.00;;;;;;5087779;28;20003;-55
2023/05/28 08:10:43;;;;;;;;;;;22.00;48.90;;;;;;5082603;28;19920;-55
2023/05/28 08:13:09;;;;;;;;;;;22.10;48.80;;;;;;5070247;28;19927;-54
2023/05/28 08:15:35;;;;;;;;;;;22.10;49.00;;;;;;5062936;28;19970;-55
2023/05/28 08:18:00;;;;;;;;;;;22.10;49.10;;;;;;5084514;28;19923;-55
2023/05/28 08:20:26;;;;;;;;;;;22.10;49.20;;;;;;5079520;28;19912;-55
2023/05/28 08:22:52;;;;;;;;;;;22.20;48.90;;;;;;5089821;28;19927;-55
2023/05/28 08:25:17;;;;;;;;;;;22.20;49.30;;;;;;5086522;28;19939;-55
2023/05/28 08:27:42;;;;;;;;;;;22.20;49.20;;;;;;5082004;28;19935;-55
2023/05/28 08:30:08;;;;;;;;;;;22.20;49.00;;;;;;5079007;28;19912;-55
2023/05/28 08:32:34;;;;;;;;;;;22.30;49.10;;;;;;5083077;28;19916;-55
2023/05/28 08:34:59;;;;;;;;;;;22.30;48.80;;;;;;5091748;28;19916;-55
2023/05/28 08:37:25;;;;;;;;;;;22.30;48.90;;;;;;5081327;28;20334;-55
2023/05/28 08:39:51;;;;;;;;;;;22.40;49.10;;;;;;5085913;28;20017;-55
2023/05/28 08:42:16;;;;;;;;;;;22.30;49.00;;;;;;5088071;28;19969;-55
2023/05/28 08:44:42;;;;;;;;;;;22.40;49.00;;;;;;5086938;28;19920;-55
2023/05/28 08:47:07;;;;;;;;;;;22.40;49.00;;;;;;5094854;28;19952;-55
2023/05/28 08:49:41;;;;;;;;;;;22.40;49.00;;;;;;5076749;28;19916;-55
2023/05/28 08:52:07;;;;;;;;;;;22.40;49.20;;;;;;5087533;28;19923;-55
2023/05/28 08:54:33;;;;;;;;;;;22.40;49.30;;;;;;5092586;28;19916;-55
2023/05/28 08:56:58;;;;;;;;;;;22.40;48.90;;;;;;5110608;28;19937;-55
2023/05/28 08:59:25;;;;;;;;;;;22.40;48.90;;;;;;5075340;28;19915;-55
2023/05/28 09:01:51;;;;;;;;;;;22.50;48.90;;;;;;5069223;28;19916;-55
2023/05/28 09:04:16;;;;;;;;;;;22.50;48.80;;;;;;5088824;28;19919;-55
2023/05/28 09:06:41;;;;;;;;;;;22.50;48.70;;;;;;5093289;28;19922;-55
2023/05/28 09:09:11;;;;;;;;;;;22.50;48.80;;;;;;5090560;28;19973;-55
2023/05/28 09:11:37;;;;;;;;;;;22.50;48.70;;;;;;5092412;28;20029;-55
2023/05/28 09:14:10;;;;;;;;;;;22.60;48.60;;;;;;5093357;28;19933;-55
2023/05/28 09:16:36;;;;;;;;;;;22.60;49.00;;;;;;5093149;28;19916;-55
2023/05/28 09:19:02;;;;;;;;;;;22.60;49.00;;;;;;5081204;28;20326;-55
2023/05/28 09:21:28;;;;;;;;;;;22.60;49.00;;;;;;5089278;28;19912;-55
2023/05/28 09:23:53;;;;;;;;;;;22.60;48.40;;;;;;5085614;28;20292;-55
2023/05/28 09:26:21;;;;;;;;;;;22.70;48.80;;;;;;5091995;28;19908;-55
2023/05/28 09:28:48;;;;;;;;;;;22.70;48.30;;;;;;5088113;28;20023;-55
2023/05/28 09:31:14;;;;;;;;;;;22.70;48.50;;;;;;5093612;28;20240;-55
2023/05/28 09:33:46;;;;;;;;;;;22.70;47.80;;;;;;5090901;28;20010;-55
2023/05/28 09:36:14;;;;;;;;;;;22.80;48.30;;;;;;5073049;28;19919;-55
2023/05/28 09:38:40;;;;;;;;;;;22.80;48.10;;;;;;5070625;28;19977;-55
2023/05/28 09:41:05;;;;;;;;;;;22.80;48.30;;;;;;5073824;28;19990;-55
2023/05/28 09:43:31;;;;;;;;;;;22.80;48.30;;;;;;5088775;28;19912;-55
2023/05/28 09:46:08;;;;;;;;;;;22.80;47.80;;;;;;5081654;28;20325;-55
2023/05/28 09:48:34;;;;;;;;;;;22.90;47.70;;;;;;5093878;28;19924;-55
2023/05/28 09:51:03;;;;;;;;;;;22.90;46.90;;;;;;5087373;28;19923;-55
2023/05/28 09:53:29;;;;;;;;;;;23.00;47.60;;;;;;5072090;28;19987;-55
2023/05/28 09:55:54;;;;;;;;;;;23.00;47.80;;;;;;5087944;28;19920;-55
2023/05/28 09:58:20;;;;;;;;;;;23.00;48.30;;;;;;5076642;28;19939;-54
2023/05/28 10:00:48;;;;;;;;;;;23.00;47.60;;;;;;5064232;28;19915;-55
2023/05/28 10:03:22;;;;;;;;;;;23.00;48.10;;;;;;5075191;28;19924;-55
2023/05/28 10:05:48;;;;;;;;;;;23.10;47.00;;;;;;5081222;28;19961;-55
2023/05/28 10:08:15;;;;;;;;;;;23.10;47.40;;;;;;5075048;28;19923;-56
2023/05/28 10:10:41;;;;;;;;;;;23.10;47.70;;;;;;5084833;28;19963;-55
2023/05/28 10:13:09;;;;;;;;;;;23.20;47.80;;;;;;5091875;28;20006;-55
2023/05/28 10:15:35;;;;;;;;;;;23.20;46.60;;;;;;5088832;28;19916;-55
2023/05/28 10:18:01;;;;;;;;;;;23.20;47.00;;;;;;5090531;28;20003;-55
2023/05/28 10:20:27;;;;;;;;;;;23.30;46.70;;;;;;5091199;28;19916;-56
2023/05/28 10:22:52;;;;;;;;;;;23.30;46.50;;;;;;5088269;28;20269;-55
2023/05/28 10:25:18;;;;;;;;;;;23.30;47.00;;;;;;5089973;28;19909;-55
2023/05/28 10:27:44;;;;;;;;;;;23.20;48.00;;;;;;5074387;28;19958;-55
2023/05/28 10:30:10;;;;;;;;;;;23.10;47.40;;;;;;5082699;28;19920;-55
2023/05/28 10:32:40;;;;;;;;;;;23.10;46.60;;;;;;5077950;28;19928;-56
2023/05/28 10:35:06;;;;;;;;;;;23.00;46.40;;;;;;5090068;28;20388;-56
2023/05/28 10:37:32;;;;;;;;;;;23.10;45.80;;;;;;5091428;28;19916;-55
2023/05/28 10:39:57;;;;;;;;;;;23.10;45.90;;;;;;5065597;28;20482;-54
2023/05/28 10:42:22;;;;;;;;;;;23.10;46.10;;;;;;5058869;28;20320;-55
2023/05/28 10:44:52;;;;;;;;;;;23.00;45.80;;;;;;5086883;28;19912;-55
2023/05/28 10:47:18;;;;;;;;;;;23.00;46.30;;;;;;5089419;28;20036;-55
2023/05/28 10:50:00;;;;;;;;;;;23.10;45.90;;;;;;5084260;28;20264;-55
2023/05/28 10:52:25;;;;;;;;;;;23.10;45.30;;;;;;5060899;28;19916;-55
2023/05/28 10:54:52;;;;;;;;;;;23.20;45.60;;;;;;5088801;28;19912;-55
2023/05/28 10:57:18;;;;;;;;;;;23.10;45.10;;;;;;5107116;28;19912;-55
2023/05/28 10:59:47;;;;;;;;;;;23.10;45.40;;;;;;5086833;28;19945;-55
2023/05/28 11:02:24;;;;;;;;;;;23.20;45.60;;;;;;5057879;28;19919;-55
2023/05/28 11:04:53;;;;;;;;;;;23.20;45.80;;;;;;5086862;28;19912;-55
2023/05/28 11:07:19;;;;;;;;;;;23.30;45.10;;;;;;5064462;28;19916;-55
2023/05/28 11:09:51;;;;;;;;;;;23.40;44.70;;;;;;5090710;28;19916;-55
2023/05/28 11:12:19;;;;;;;;;;;23.50;44.10;;;;;;5081115;28;19913;-55
2023/05/28 11:14:44;;;;;;;;;;;23.50;44.20;;;;;;5083341;28;19912;-55
2023/05/28 11:17:10;;;;;;;;;;;23.60;43.90;;;;;;5082930;28;20340;-55
2023/05/28 11:19:42;;;;;;;;;;;23.50;43.40;;;;;;5086163;28;19916;-54
2023/05/28 11:22:08;;;;;;;;;;;23.70;43.40;;;;;;5081294;28;19963;-54
2023/05/28 11:24:49;;;;;;;;;;;23.60;43.50;;;;;;5086286;28;19960;-54
2023/05/28 11:27:15;;;;;;;;;;;23.30;44.20;;;;;;5087191;28;19912;-54
2023/05/28 11:29:40;;;;;;;;;;;23.20;44.90;;;;;;5063097;28;20421;-54
2023/05/28 11:32:06;;;;;;;;;;;23.00;44.80;;;;;;5091850;28;19915;-54
2023/05/28 11:34:31;;;;;;;;;;;23.10;43.90;;;;;;5091331;28;19915;-54
2023/05/28 11:36:57;;;;;;;;;;;23.40;43.80;;;;;;5061644;28;19960;-54
2023/05/28 11:39:22;;;;;;;;;;;23.50;43.80;;;;;;5069202;28;19916;-54
2023/05/28 11:41:48;;;;;;;;;;;23.50;43.30;;;;;;5089973;28;19954;-54
2023/05/28 11:44:20;;;;;;;;;;;23.50;43.60;;;;;;5091128;28;19923;-54
2023/05/28 11:46:48;;;;;;;;;;;23.50;43.40;;;;;;5090409;28;20371;-54
2023/05/28 11:49:14;;;;;;;;;;;23.50;43.50;;;;;;5046437;28;19923;-54
2023/05/28 11:51:40;;;;;;;;;;;23.60;42.90;;;;;;5081282;28;20363;-53
2023/05/28 11:54:05;;;;;;;;;;;23.80;43.00;;;;;;5091577;28;20352;-54
2023/05/28 11:56:31;;;;;;;;;;;23.70;43.10;;;;;;5103079;28;19907;-54
2023/05/28 11:58:59;;;;;;;;;;;23.80;43.40;;;;;;5065262;28;19939;-54
2023/05/28 12:01:24;;;;;;;;;;;23.80;43.60;;;;;;5074078;28;19919;-54
2023/05/28 12:03:50;;;;;;;;;;;23.80;43.00;;;;;;5073418;28;19916;-54
2023/05/28 12:06:15;;;;;;;;;;;23.80;42.90;;;;;;5079540;28;19912;-54
2023/05/28 12:08:41;;;;;;;;;;;23.90;42.90;;;;;;5087422;28;19969;-54
2023/05/28 12:11:09;;;;;;;;;;;24.00;42.90;;;;;;5094624;28;19915;-54
2023/05/28 12:13:35;;;;;;;;;;;24.00;42.80;;;;;;5094294;28;20018;-54
2023/05/28 12:16:10;;;;;;;;;;;23.90;42.70;;;;;;5079965;28;20336;-54
2023/05/28 12:18:41;;;;;;;;;;;23.90;42.60;;;;;;5089769;28;20102;-54
2023/05/28 12:21:13;;;;;;;;;;;23.80;42.90;;;;;;5093718;28;20380;-54
2023/05/28 12:23:39;;;;;;;;;;;23.80;43.40;;;;;;5084048;28;20007;-54
2023/05/28 12:26:08;;;;;;;;;;;23.70;43.70;;;;;;5094496;28;20004;-54
2023/05/28 12:28:38;;;;;;;;;;;23.50;43.90;;;;;;5073432;28;20364;-54
2023/05/28 12:31:04;;;;;;;;;;;23.50;44.00;;;;;;5099402;28;19955;-54
2023/05/28 12:33:30;;;;;;;;;;;23.40;44.10;;;;;;5066886;28;19955;-54
2023/05/28 12:35:56;;;;;;;;;;;23.50;44.10;;;;;;5095022;28;19971;-54
2023/05/28 12:38:21;;;;;;;;;;;23.60;43.60;;;;;;5094968;28;20417;-54
2023/05/28 12:40:47;;;;;;;;;;;23.70;43.10;;;;;;5092737;28;19912;-54
2023/05/28 12:43:13;;;;;;;;;;;23.60;43.10;;;;;;5090452;28;19926;-54
2023/05/28 12:45:39;;;;;;;;;;;23.60;43.30;;;;;;5085613;28;19913;-54
2023/05/28 12:48:04;;;;;;;;;;;23.50;43.40;;;;;;5087410;28;20011;-54
2023/05/28 12:50:29;;;;;;;;;;;23.50;43.70;;;;;;5088272;28;19916;-54
2023/05/28 12:52:55;;;;;;;;;;;23.60;43.20;;;;;;5094980;28;19909;-54
2023/05/28 12:55:21;;;;;;;;;;;23.80;42.60;;;;;;5096322;28;19912;-54
2023/05/28 12:57:46;;;;;;;;;;;23.90;42.60;;;;;;5108222;28;19947;-54
2023/05/28 13:00:12;;;;;;;;;;;24.10;42.00;;;;;;5071103;28;19920;-54
2023/05/28 13:02:37;;;;;;;;;;;24.10;41.80;;;;;;5089223;28;19942;-54
2023/05/28 13:05:03;;;;;;;;;;;24.00;41.80;;;;;;5068452;28;19916;-54
2023/05/28 13:07:28;;;;;;;;;;;24.10;41.90;;;;;;5094635;28;20288;-53
2023/05/28 13:09:54;;;;;;;;;;;24.00;42.00;;;;;;5082778;28;20390;-54
2023/05/28 13:12:19;;;;;;;;;;;23.90;42.10;;;;;;5094020;28;20390;-54
2023/05/28 13:14:45;;;;;;;;;;;23.90;42.50;;;;;;5093989;28;19912;-54
2023/05/28 13:17:10;;;;;;;;;;;23.80;42.50;;;;;;5088642;28;20422;-54
2023/05/28 13:19:36;;;;;;;;;;;23.80;42.80;;;;;;5082077;28;20433;-54
2023/05/28 13:22:02;;;;;;;;;;;23.70;42.50;;;;;;5091329;28;19916;-54
2023/05/28 13:24:27;;;;;;;;;;;23.70;42.30;;;;;;5094424;28;19911;-54
2023/05/28 13:26:53;;;;;;;;;;;23.80;42.40;;;;;;5094095;28;19915;-54
2023/05/28 13:29:18;;;;;;;;;;;23.90;42.10;;;;;;5092172;28;19939;-54
2023/05/28 13:31:44;;;;;;;;;;;24.00;41.90;;;;;;5089875;28;20394;-53
2023/05/28 13:34:09;;;;;;;;;;;24.10;41.50;;;;;;5094059;28;20364;-54
2023/05/28 13:36:35;;;;;;;;;;;24.00;41.80;;;;;;5093658;28;20429;-54
2023/05/28 13:39:01;;;;;;;;;;;24.10;41.60;;;;;;5068860;28;19913;-54
2023/05/28 13:41:26;;;;;;;;;;;24.20;41.40;;;;;;5092582;28;19954;-54
2023/05/28 13:43:55;;;;;;;;;;;24.20;41.30;;;;;;5072210;28;19962;-54
2023/05/28 13:46:21;;;;;;;;;;;24.30;41.10;;;;;;5068995;28;20003;-53
2023/05/28 13:48:46;;;;;;;;;;;24.30;41.00;;;;;;5081919;28;19917;-53
2023/05/28 13:51:12;;;;;;;;;;;24.30;40.50;;;;;;5088366;28;20425;-53
2023/05/28 13:53:37;;;;;;;;;;;24.00;40.40;;;;;;5085651;28;19935;-53
2023/05/28 13:56:03;;;;;;;;;;;23.90;40.50;;;;;;5084207;28;19923;-53
2023/05/28 13:58:29;;;;;;;;;;;23.90;40.00;;;;;;5088630;28;19912;-53
2023/05/28 14:00:54;;;;;;;;;;;24.10;39.80;;;;;;5085545;28;19923;-53
2023/05/28 14:03:20;;;;;;;;;;;24.30;39.10;;;;;;5091888;28;19920;-53
2023/05/28 14:05:45;;;;;;;;;;;24.50;39.60;;;;;;5081542;28;20351;-53
2023/05/28 14:08:11;;;;;;;;;;;24.50;39.30;;;;;;5087619;28;19956;-53
2023/05/28 14:10:36;;;;;;;;;;;24.60;39.20;;;;;;5083294;28;19954;-53